TRA219 EHEH-EHLE
Flight info
| Callsign | TRA219 |
|---|---|
| Flight time | 0h 21m |
| Altitude | 6000 |
| Route | EHEH/21 EH5 W1C DCT IVLUT DCT EHLE/I05 |
| Aircraft | A319/M-SDE3FGHIRWY/LB1 |
Departure
| Time | 2026-04-12 10:54 |
|---|---|
| Airport | Eindhoven Airport (EHEH) |
Arrival
| Time | 2026-04-12 11:16 |
|---|---|
| Airport | Lelystad Airport (EHLE) |
| Time | Latitude | Longitude | Altitude | Speed | Heading |
|---|---|---|---|---|---|
| 2026-04-12 10:33 | 51.45518 | 5.38666 | 72 ft | 0 kts | 124° |
| 2026-04-12 10:49 | 51.45519 | 5.38664 | 72 ft | 2 kts | 124° |
| 2026-04-12 10:50 | 51.45529 | 5.38643 | 62 ft | 2 kts | 102° |
| 2026-04-12 10:50 | 51.45527 | 5.38618 | 69 ft | 2 kts | 34° |
| 2026-04-12 10:50 | 51.45525 | 5.38614 | 69 ft | 0 kts | 21° |
| 2026-04-12 10:51 | 51.45527 | 5.38615 | 72 ft | 1 kts | 21° |
| 2026-04-12 10:51 | 51.45559 | 5.38638 | 66 ft | 10 kts | 24° |
| 2026-04-12 10:52 | 51.45646 | 5.38701 | 69 ft | 18 kts | 25° |
| 2026-04-12 10:52 | 51.45769 | 5.38785 | 74 ft | 17 kts | 356° |
| 2026-04-12 10:52 | 51.45830 | 5.38673 | 69 ft | 15 kts | 310° |
| 2026-04-12 10:52 | 51.45842 | 5.38649 | 76 ft | 0 kts | 308° |
| 2026-04-12 10:53 | 51.45843 | 5.38648 | 76 ft | 1 kts | 308° |
| 2026-04-12 10:53 | 51.45877 | 5.38577 | 78 ft | 15 kts | 307° |
| 2026-04-12 10:54 | 51.45852 | 5.38387 | 75 ft | 28 kts | 215° |
| 2026-04-12 10:54 | 51.45494 | 5.37991 | 83 ft | 97 kts | 214° |
| 2026-04-12 10:54 | 51.44806 | 5.37221 | 234 ft | 131 kts | 215° |
| 2026-04-12 10:54 | 51.44071 | 5.36322 | 752 ft | 133 kts | 219° |
| 2026-04-12 10:55 | 51.43309 | 5.35418 | 1133 ft | 140 kts | 213° |
| 2026-04-12 10:55 | 51.42459 | 5.34491 | 1507 ft | 157 kts | 214° |
| 2026-04-12 10:55 | 51.41478 | 5.33424 | 1870 ft | 185 kts | 214° |
| 2026-04-12 10:55 | 51.40325 | 5.32225 | 2182 ft | 206 kts | 205° |
| 2026-04-12 10:56 | 51.38904 | 5.32012 | 2499 ft | 215 kts | 164° |
| 2026-04-12 10:56 | 51.37720 | 5.33487 | 2818 ft | 226 kts | 123° |
| 2026-04-12 10:56 | 51.37318 | 5.35958 | 3121 ft | 235 kts | 99° |
| 2026-04-12 10:56 | 51.37176 | 5.38563 | 3490 ft | 235 kts | 98° |
| 2026-04-12 10:57 | 51.37056 | 5.41196 | 3937 ft | 243 kts | 97° |
| 2026-04-12 10:57 | 51.36979 | 5.44056 | 4391 ft | 268 kts | 87° |
| 2026-04-12 10:57 | 51.37497 | 5.46960 | 4844 ft | 278 kts | 63° |
| 2026-04-12 10:57 | 51.38678 | 5.49420 | 5287 ft | 283 kts | 45° |
| 2026-04-12 10:58 | 51.40059 | 5.51675 | 5726 ft | 285 kts | 45° |
| 2026-04-12 10:58 | 51.41446 | 5.53957 | 6011 ft | 288 kts | 46° |
| 2026-04-12 10:58 | 51.42820 | 5.56231 | 6065 ft | 287 kts | 46° |
| 2026-04-12 10:58 | 51.44207 | 5.58533 | 6077 ft | 287 kts | 46° |
| 2026-04-12 10:59 | 51.45593 | 5.60836 | 6059 ft | 288 kts | 46° |
| 2026-04-12 10:59 | 51.46987 | 5.63161 | 6076 ft | 288 kts | 46° |
| 2026-04-12 10:59 | 51.48373 | 5.65478 | 6077 ft | 287 kts | 46° |
| 2026-04-12 10:59 | 51.49756 | 5.67796 | 6079 ft | 288 kts | 46° |
| 2026-04-12 11:00 | 51.51142 | 5.70120 | 6075 ft | 288 kts | 46° |
| 2026-04-12 11:00 | 51.52525 | 5.72441 | 6089 ft | 288 kts | 46° |
| 2026-04-12 11:00 | 51.53917 | 5.74772 | 6076 ft | 288 kts | 46° |
| 2026-04-12 11:00 | 51.55302 | 5.77095 | 6075 ft | 288 kts | 46° |
| 2026-04-12 11:01 | 51.56673 | 5.79400 | 6089 ft | 289 kts | 46° |
| 2026-04-12 11:01 | 51.58059 | 5.81729 | 6094 ft | 287 kts | 46° |
| 2026-04-12 11:01 | 51.59438 | 5.84046 | 6098 ft | 287 kts | 46° |
| 2026-04-12 11:01 | 51.60921 | 5.86180 | 6095 ft | 286 kts | 33° |
| 2026-04-12 11:02 | 51.62699 | 5.87573 | 6097 ft | 284 kts | 15° |
| 2026-04-12 11:02 | 51.64630 | 5.88118 | 6075 ft | 280 kts | 359° |
| 2026-04-12 11:02 | 51.66569 | 5.87951 | 6079 ft | 279 kts | 353° |
| 2026-04-12 11:02 | 51.68514 | 5.87709 | 6072 ft | 279 kts | 353° |
| 2026-04-12 11:03 | 51.70454 | 5.87475 | 6073 ft | 280 kts | 353° |
| 2026-04-12 11:03 | 51.72396 | 5.87243 | 6073 ft | 281 kts | 353° |
| 2026-04-12 11:03 | 51.74346 | 5.87011 | 6073 ft | 281 kts | 353° |
| 2026-04-12 11:03 | 51.76273 | 5.86784 | 6072 ft | 281 kts | 353° |
| 2026-04-12 11:04 | 51.78219 | 5.86553 | 6067 ft | 280 kts | 353° |
| 2026-04-12 11:04 | 51.80170 | 5.86321 | 6065 ft | 280 kts | 353° |
| 2026-04-12 11:04 | 51.82114 | 5.86087 | 6063 ft | 281 kts | 353° |
| 2026-04-12 11:04 | 51.84060 | 5.85854 | 6061 ft | 280 kts | 353° |
| 2026-04-12 11:05 | 51.86006 | 5.85624 | 6053 ft | 281 kts | 353° |
| 2026-04-12 11:05 | 51.87959 | 5.85467 | 6052 ft | 282 kts | 1° |
| 2026-04-12 11:05 | 51.89899 | 5.85997 | 6047 ft | 283 kts | 7° |
| 2026-04-12 11:05 | 51.91815 | 5.85758 | 6072 ft | 275 kts | 334° |
| 2026-04-12 11:06 | 51.93332 | 5.84016 | 6055 ft | 266 kts | 312° |
| 2026-04-12 11:06 | 51.94730 | 5.82013 | 6045 ft | 268 kts | 316° |
| 2026-04-12 11:06 | 51.96204 | 5.80154 | 6035 ft | 271 kts | 320° |
| 2026-04-12 11:06 | 51.97731 | 5.78344 | 6027 ft | 271 kts | 320° |
| 2026-04-12 11:07 | 51.99267 | 5.76567 | 6033 ft | 272 kts | 320° |
| 2026-04-12 11:07 | 52.00808 | 5.74788 | 6027 ft | 273 kts | 320° |
| 2026-04-12 11:07 | 52.02351 | 5.73003 | 5971 ft | 271 kts | 320° |
| 2026-04-12 11:07 | 52.03886 | 5.71219 | 5689 ft | 271 kts | 320° |
| 2026-04-12 11:08 | 52.05412 | 5.69434 | 5377 ft | 270 kts | 320° |
| 2026-04-12 11:08 | 52.06921 | 5.67665 | 5161 ft | 264 kts | 320° |
| 2026-04-12 11:08 | 52.08386 | 5.65946 | 5013 ft | 256 kts | 320° |
| 2026-04-12 11:08 | 52.09809 | 5.64271 | 4858 ft | 248 kts | 320° |
| 2026-04-12 11:09 | 52.11167 | 5.62668 | 4716 ft | 240 kts | 320° |
| 2026-04-12 11:09 | 52.12503 | 5.61085 | 4463 ft | 236 kts | 320° |
| 2026-04-12 11:09 | 52.13826 | 5.59517 | 4170 ft | 235 kts | 319° |
| 2026-04-12 11:09 | 52.15145 | 5.57955 | 3881 ft | 234 kts | 319° |
| 2026-04-12 11:10 | 52.16467 | 5.56389 | 3541 ft | 234 kts | 319° |
| 2026-04-12 11:10 | 52.17783 | 5.54830 | 3249 ft | 233 kts | 319° |
| 2026-04-12 11:10 | 52.19095 | 5.53273 | 2945 ft | 233 kts | 319° |
| 2026-04-12 11:10 | 52.20403 | 5.51724 | 2640 ft | 232 kts | 319° |
| 2026-04-12 11:11 | 52.21700 | 5.50183 | 2503 ft | 231 kts | 319° |
| 2026-04-12 11:11 | 52.23006 | 5.48628 | 2514 ft | 234 kts | 319° |
| 2026-04-12 11:11 | 52.24322 | 5.47060 | 2507 ft | 236 kts | 319° |
| 2026-04-12 11:11 | 52.25659 | 5.45468 | 2513 ft | 237 kts | 319° |
| 2026-04-12 11:12 | 52.26976 | 5.43900 | 2511 ft | 237 kts | 319° |
| 2026-04-12 11:12 | 52.28311 | 5.42307 | 2518 ft | 238 kts | 319° |
| 2026-04-12 11:12 | 52.29648 | 5.40708 | 2508 ft | 238 kts | 318° |
| 2026-04-12 11:12 | 52.30985 | 5.39107 | 2508 ft | 238 kts | 319° |
| 2026-04-12 11:13 | 52.32336 | 5.37528 | 2490 ft | 237 kts | 323° |
| 2026-04-12 11:13 | 52.33850 | 5.36547 | 2372 ft | 234 kts | 345° |
| 2026-04-12 11:13 | 52.35462 | 5.36458 | 2211 ft | 232 kts | 6° |
| 2026-04-12 11:13 | 52.36993 | 5.37262 | 2079 ft | 233 kts | 28° |
| 2026-04-12 11:14 | 52.38278 | 5.38882 | 1896 ft | 232 kts | 48° |
| 2026-04-12 11:14 | 52.39336 | 5.40773 | 1606 ft | 217 kts | 48° |
| 2026-04-12 11:14 | 52.40316 | 5.42517 | 1311 ft | 199 kts | 50° |
| 2026-04-12 11:14 | 52.41215 | 5.44119 | 1050 ft | 184 kts | 49° |
| 2026-04-12 11:15 | 52.42058 | 5.45623 | 808 ft | 172 kts | 49° |
| 2026-04-12 11:15 | 52.42824 | 5.46990 | 570 ft | 154 kts | 48° |
| 2026-04-12 11:15 | 52.43535 | 5.48279 | 333 ft | 156 kts | 50° |
| 2026-04-12 11:15 | 52.44250 | 5.49519 | 133 ft | 146 kts | 48° |
| 2026-04-12 11:16 | 52.44890 | 5.50687 | -3 ft | 120 kts | 50° |
| 2026-04-12 11:16 | 52.45291 | 5.51407 | -2 ft | 46 kts | 46° |
| 2026-04-12 11:16 | 52.45478 | 5.51733 | -4 ft | 35 kts | 48° |
| 2026-04-12 11:16 | 52.45620 | 5.51991 | -3 ft | 25 kts | 47° |
| 2026-04-12 11:17 | 52.45720 | 5.52170 | -3 ft | 18 kts | 47° |
| 2026-04-12 11:17 | 52.45800 | 5.52312 | -1 ft | 18 kts | 48° |
| 2026-04-12 11:17 | 52.45893 | 5.52480 | -2 ft | 20 kts | 46° |
| 2026-04-12 11:17 | 52.45970 | 5.52482 | -3 ft | 0 kts | 320° |
| 2026-04-12 11:18 | 52.45985 | 5.52462 | -3 ft | 5 kts | 320° |
| 2026-04-12 11:18 | 52.46019 | 5.52407 | -4 ft | 8 kts | 302° |
| 2026-04-12 11:18 | 52.46017 | 5.52298 | -4 ft | 11 kts | 269° |
| 2026-04-12 11:18 | 52.46077 | 5.52230 | -4 ft | 10 kts | 29° |
| 2026-04-12 11:19 | 52.46111 | 5.52297 | -4 ft | 8 kts | 6° |
| 2026-04-12 11:19 | 52.46130 | 5.52282 | -4 ft | 1 kts | 319° |
| 2026-04-12 11:19 | 52.46131 | 5.52281 | -4 ft | 0 kts | 321° |